Time;durP1;ratioP1;P1;durP2;ratioP2;P2;SDS_P1;SDS_P2;PMS_P1;PMS_P2;Temp;Humidity;BMP_temperature;BMP_pressure;BME280_temperature;BME280_humidity;BME280_pressure;Samples;Min_cycle;Max_cycle;Signal;HPM_P1;HPM_P2
2022/11/18 00:01:59;;;;;;;54.17;29.98;;;;;;;9.60;100.00;99033.88;5086255;28;20025;-28
2022/11/18 00:04:25;;;;;;;55.65;28.05;;;;;;;9.58;100.00;99037.78;5086244;28;20054;-35
2022/11/18 00:06:50;;;;;;;63.55;29.38;;;;;;;9.45;100.00;99025.56;5086283;28;20098;-29
2022/11/18 00:09:15;;;;;;;55.53;28.48;;;;;;;9.57;100.00;99039.66;5086067;28;20020;-30
2022/11/18 00:14:26;;;;;;;61.03;29.83;;;;;;;9.61;100.00;99034.66;5086102;28;20086;-31
2022/11/18 00:16:53;;;;;;;57.28;26.95;;;;;;;9.53;100.00;99037.72;5067988;28;20051;-29
2022/11/18 00:19:20;;;;;;;43.58;27.85;;;;;;;9.51;100.00;99035.28;5067945;28;20039;-32
2022/11/18 00:21:46;;;;;;;57.80;32.30;;;;;;;9.60;100.00;99022.38;5086103;28;20057;-29
2022/11/18 00:24:12;;;;;;;59.03;32.60;;;;;;;9.53;100.00;99019.06;5085952;28;20423;-32
2022/11/18 00:26:37;;;;;;;48.65;31.05;;;;;;;9.23;100.00;99012.94;5086120;28;20115;-29
2022/11/18 00:29:03;;;;;;;55.55;29.40;;;;;;;9.14;100.00;99024.19;5086146;28;20036;-29
2022/11/18 00:31:29;;;;;;;50.67;28.60;;;;;;;9.19;100.00;99032.25;5087568;28;20028;-32
2022/11/18 00:33:54;;;;;;;56.28;30.42;;;;;;;8.93;100.00;99034.38;5089877;28;20081;-29
2022/11/18 00:36:20;;;;;;;63.63;29.38;;;;;;;8.97;100.00;99040.03;5090157;28;20028;-30
2022/11/18 00:38:45;;;;;;;53.65;31.30;;;;;;;9.02;100.00;99061.41;5089964;28;20107;-29
2022/11/18 00:41:13;;;;;;;78.78;31.95;;;;;;;9.15;100.00;99060.34;5089572;28;20027;-33
2022/11/18 00:43:39;;;;;;;96.72;32.47;;;;;;;9.07;100.00;99045.56;5071686;28;20476;-33
2022/11/18 00:46:06;;;;;;;99.88;33.30;;;;;;;8.82;100.00;99065.22;5071292;28;20491;-33
2022/11/18 00:48:32;;;;;;;88.95;32.67;;;;;;;8.63;100.00;99061.09;5070935;28;20845;-31
2022/11/18 00:51:05;;;;;;;89.78;31.80;;;;;;;8.60;100.00;99035.78;5089878;28;20115;-28
2022/11/18 00:53:30;;;;;;;69.47;29.50;;;;;;;8.96;100.00;99057.84;5089454;28;20032;-29
2022/11/18 00:55:56;;;;;;;70.32;30.08;;;;;;;9.01;100.00;99035.84;5089312;28;20028;-29
2022/11/18 00:58:21;;;;;;;59.00;30.67;;;;;;;9.19;100.00;99058.84;5089493;28;20032;-28
2022/11/18 01:00:50;;;;;;;65.22;30.08;;;;;;;8.95;100.00;99050.09;5071221;28;20502;-28
2022/11/18 01:03:15;;;;;;;96.10;30.90;;;;;;;8.81;100.00;99063.63;5071168;28;20479;-28
2022/11/18 01:05:41;;;;;;;99.10;30.58;;;;;;;8.59;100.00;99054.63;5071085;28;20025;-31
2022/11/18 01:08:08;;;;;;;67.32;30.00;;;;;;;8.87;100.00;99061.06;5089256;28;20024;-28
2022/11/18 01:10:35;;;;;;;75.57;30.75;;;;;;;8.93;100.00;99046.84;5071124;28;20028;-31
2022/11/18 01:13:19;;;;;;;87.18;29.63;;;;;;;8.59;100.00;99041.31;5088049;28;20031;-33
2022/11/18 01:15:48;;;;;;;76.30;31.88;;;;;;;8.90;100.00;99052.66;5088885;28;20067;-33
2022/11/18 01:18:15;;;;;;;79.18;32.75;;;;;;;8.70;100.00;99059.13;5089169;28;20024;-29
2022/11/18 01:20:40;;;;;;;74.25;32.88;;;;;;;8.82;100.00;99049.28;5070455;28;20113;-30
2022/11/18 01:23:06;;;;;;;99.55;34.22;;;;;;;8.98;100.00;99057.59;5089325;28;20499;-28
2022/11/18 01:25:31;;;;;;;81.05;33.55;;;;;;;9.05;100.00;99052.97;5088859;28;20120;-28
2022/11/18 01:27:57;;;;;;;59.10;31.45;;;;;;;9.00;100.00;99055.53;5088842;28;20027;-31
2022/11/18 01:30:22;;;;;;;65.03;31.90;;;;;;;8.89;100.00;99035.06;5088645;28;20038;-29
2022/11/18 01:32:48;;;;;;;91.57;33.03;;;;;;;8.89;100.00;99049.19;5089183;28;20032;-29
2022/11/18 01:35:13;;;;;;;92.57;33.65;;;;;;;8.87;100.00;99039.81;5088534;28;20104;-34
2022/11/18 01:37:39;;;;;;;76.65;31.42;;;;;;;8.95;100.00;99031.47;5088495;28;20028;-32
2022/11/18 01:40:06;;;;;;;70.00;31.80;;;;;;;8.77;100.00;99033.25;5088786;28;20043;-30
2022/11/18 01:42:32;;;;;;;86.03;35.53;;;;;;;8.89;100.00;99032.41;5088512;28;20031;-33
2022/11/18 01:45:09;;;;;;;97.70;35.03;;;;;;;8.92;100.00;99047.91;5070359;28;20020;-31
2022/11/18 01:47:41;;;;;;;187.40;39.00;;;;;;;8.96;100.00;99046.41;5088424;28;20039;-30
2022/11/18 01:50:07;;;;;;;185.23;42.70;;;;;;;8.84;100.00;99031.25;5069333;28;20315;-29
2022/11/18 01:52:33;;;;;;;162.82;38.00;;;;;;;8.94;100.00;99059.91;5069912;28;20093;-29
2022/11/18 01:55:05;;;;;;;104.10;36.08;;;;;;;9.10;100.00;99055.75;5088336;28;20899;-32
2022/11/18 01:57:31;;;;;;;94.50;35.90;;;;;;;9.07;100.00;99039.44;5069844;28;20028;-33
2022/11/18 02:00:01;;;;;;;78.85;34.00;;;;;;;9.18;100.00;99058.03;5087824;28;20407;-32
2022/11/18 02:02:31;;;;;;;70.90;31.63;;;;;;;9.16;100.00;99048.69;5069464;28;20024;-30
2022/11/18 02:04:57;;;;;;;101.03;35.45;;;;;;;8.87;100.00;99026.50;5070100;28;20040;-33
2022/11/18 02:07:24;;;;;;;99.32;31.65;;;;;;;8.71;100.00;99052.78;5088072;28;20066;-29
2022/11/18 02:09:52;;;;;;;118.38;35.55;;;;;;;8.81;100.00;99066.28;5069415;28;20122;-33
2022/11/18 02:12:18;;;;;;;87.20;35.58;;;;;;;9.06;100.00;99065.22;5086437;28;20460;-29
2022/11/18 02:14:45;;;;;;;90.90;37.58;;;;;;;8.92;100.00;99063.84;5069606;28;20054;-31
2022/11/18 02:17:17;;;;;;;142.23;34.83;;;;;;;8.93;100.00;99076.09;5069249;28;20493;-37
2022/11/18 02:19:45;;;;;;;80.90;31.17;;;;;;;9.00;100.00;99056.31;5069488;28;20491;-33
2022/11/18 02:22:29;;;;;;;;;;;;;;;9.12;100.00;99058.97;5088142;28;20182;-33
2022/11/18 02:25:07;;;;;;;83.10;29.92;;;;;;;8.92;100.00;99047.91;5087730;28;20492;-33
2022/11/18 02:28:10;;;;;;;77.22;31.48;;;;;;;9.11;100.00;99057.34;5069152;28;20679;-29
2022/11/18 02:31:19;;;;;;;77.43;28.00;;;;;;;9.08;100.00;99051.72;5087498;28;20808;-31
2022/11/18 02:33:51;;;;;;;52.03;26.70;;;;;;;9.01;100.00;99043.84;5053008;28;20482;-36
2022/11/18 02:36:33;;;;;;;83.65;29.05;;;;;;;9.05;100.00;99042.31;5087554;28;20042;-30
2022/11/18 02:39:08;;;;;;;90.13;29.05;;;;;;;8.94;100.00;99057.25;5087566;28;20781;-29
2022/11/18 02:41:35;;;;;;;93.75;28.58;;;;;;;8.95;100.00;99042.94;5069148;28;20475;-31
2022/11/18 02:44:14;;;;;;;83.25;29.33;;;;;;;9.10;100.00;99062.91;5086951;28;20024;-34
2022/11/18 02:46:43;;;;;;;117.07;28.80;;;;;;;8.99;100.00;99062.69;5068960;28;20040;-31
2022/11/18 02:49:17;;;;;;;58.85;26.33;;;;;;;9.03;100.00;99055.88;5086637;28;20515;-34
2022/11/18 02:51:45;;;;;;;76.38;27.20;;;;;;;8.99;100.00;99064.53;5086885;28;20407;-32
2022/11/18 02:54:14;;;;;;;100.07;29.42;;;;;;;9.10;100.00;99058.41;5068050;28;20119;-31
2022/11/18 02:56:41;;;;;;;62.95;28.17;;;;;;;8.96;100.00;99044.53;5086828;28;20118;-29
2022/11/18 02:59:06;;;;;;;86.72;30.58;;;;;;;8.93;100.00;99060.97;5068613;28;20039;-29
2022/11/18 03:01:34;;;;;;;63.10;28.75;;;;;;;9.07;100.00;99066.84;5068762;28;20093;-34
2022/11/18 03:04:00;;;;;;;75.38;27.98;;;;;;;8.91;100.00;99056.91;5068455;28;20060;-30
2022/11/18 03:07:01;;;;;;;69.85;28.38;;;;;;;9.06;100.00;99059.91;5086689;28;20185;-31
2022/11/18 03:09:33;;;;;;;78.95;27.75;;;;;;;8.99;100.00;99048.56;5075418;28;20490;-37
2022/11/18 03:12:10;;;;;;;99.82;31.00;;;;;;;8.89;100.00;99037.72;5086318;28;20028;-33
2022/11/18 03:14:54;;;;;;;92.93;30.85;;;;;;;8.99;100.00;99048.56;5086838;28;20076;-30
2022/11/18 03:17:50;;;;;;;84.78;28.55;;;;;;;8.79;100.00;99060.41;5068204;28;20118;-30
2022/11/18 03:20:44;;;;;;;57.90;27.30;;;;;;;9.12;100.00;99051.00;5086661;28;20032;-32
2022/11/18 03:23:19;;;;;;;89.82;28.60;;;;;;;8.66;100.00;99036.69;5068327;28;20506;-29
2022/11/18 03:25:57;;;;;;;83.15;26.45;;;;;;;8.95;100.00;99058.06;5067829;28;20404;-30
2022/11/18 03:28:43;;;;;;;63.87;27.13;;;;;;;8.73;100.00;99053.34;5086160;28;20036;-30
2022/11/18 03:31:17;;;;;;;131.35;29.30;;;;;;;8.70;100.00;99053.78;5086305;28;20331;-30
2022/11/18 03:33:57;;;;;;;115.53;27.98;;;;;;;8.69;100.00;99049.53;5086190;28;20031;-31
2022/11/18 03:36:26;;;;;;;91.35;26.75;;;;;;;8.65;100.00;99053.69;5086416;28;20027;-31
2022/11/18 03:38:57;;;;;;;77.57;25.63;;;;;;;8.51;100.00;99052.31;5086273;28;20039;-31
2022/11/18 03:41:25;;;;;;;75.75;27.17;;;;;;;8.37;100.00;99030.41;5086730;28;20031;-33
2022/11/18 03:44:03;;;;;;;94.83;26.90;;;;;;;8.41;100.00;99048.34;5067934;28;20089;-29
2022/11/18 03:46:37;;;;;;;103.43;24.83;;;;;;;8.40;100.00;99032.63;5067891;28;20669;-29
2022/11/18 03:49:06;;;;;;;68.93;22.20;;;;;;;8.66;100.00;99044.66;5067378;28;20036;-29
2022/11/18 03:51:38;;;;;;;106.63;25.63;;;;;;;8.68;100.00;99055.88;5086193;28;20135;-31
2022/11/18 03:54:28;;;;;;;64.45;23.50;;;;;;;8.80;100.00;99050.56;5067597;28;20063;-33
2022/11/18 03:56:58;;;;;;;86.22;25.05;;;;;;;8.79;100.00;99067.56;5085648;28;20111;-30
2022/11/18 03:59:49;;;;;;;78.32;24.25;;;;;;;8.57;100.00;99072.63;5068064;28;20600;-28
2022/11/18 04:02:22;;;;;;;104.57;25.45;;;;;;;8.65;100.00;99073.09;5078261;28;20066;-29
2022/11/18 04:04:50;;;;;;;83.20;27.30;;;;;;;8.56;100.00;99065.69;5087005;28;20036;-29
2022/11/18 04:07:31;;;;;;;78.20;25.23;;;;;;;8.61;100.00;99068.47;5090361;28;20031;-29
2022/11/18 04:10:05;;;;;;;90.10;24.73;;;;;;;8.74;100.00;99073.56;5089922;28;20038;-29
2022/11/18 04:12:39;;;;;;;70.32;25.33;;;;;;;8.74;100.00;99057.59;5090099;28;20028;-30
2022/11/18 04:15:04;;;;;;;60.50;22.75;;;;;;;8.75;100.00;99069.88;5089892;28;20035;-31
2022/11/18 04:17:30;;;;;;;120.53;25.42;;;;;;;8.79;100.00;99073.69;5071496;28;20036;-28
2022/11/18 04:19:55;;;;;;;105.13;27.42;;;;;;;9.00;100.00;99082.13;5089351;28;20032;-30
2022/11/18 04:22:21;;;;;;;92.95;25.10;;;;;;;8.63;100.00;99053.91;5090119;28;20028;-33
2022/11/18 04:24:46;;;;;;;138.35;30.55;;;;;;;8.50;100.00;99079.91;5089957;28;20024;-29
2022/11/18 04:27:12;;;;;;;97.43;28.67;;;;;;;8.67;100.00;99099.47;5089518;28;20111;-31
2022/11/18 04:29:38;;;;;;;125.97;30.50;;;;;;;8.82;100.00;99105.13;5089607;28;20415;-34
2022/11/18 04:32:04;;;;;;;71.07;26.00;;;;;;;8.83;100.00;99101.44;5089256;28;20024;-30
2022/11/18 04:34:29;;;;;;;74.90;23.92;;;;;;;8.83;100.00;99093.44;5089852;28;20032;-32
2022/11/18 04:36:55;;;;;;;54.22;22.92;;;;;;;8.74;100.00;99094.03;5089573;28;20026;-29
2022/11/18 04:39:21;;;;;;;66.22;24.33;;;;;;;8.76;100.00;99082.13;5071548;28;20079;-29
2022/11/18 04:41:55;;;;;;;64.43;24.05;;;;;;;8.38;100.00;99054.09;5089348;28;20032;-29
2022/11/18 04:44:32;;;;;;;123.47;27.38;;;;;;;8.44;100.00;99090.41;5089680;28;20736;-29
2022/11/18 04:47:00;;;;;;;73.13;25.60;;;;;;;8.53;100.00;99066.97;5087746;28;20028;-29
2022/11/18 04:49:27;;;;;;;71.88;24.33;;;;;;;8.38;100.00;99077.22;5070779;28;20611;-33
2022/11/18 04:51:53;;;;;;;72.45;23.35;;;;;;;7.98;100.00;99065.31;5087679;28;20032;-29
2022/11/18 04:54:19;;;;;;;157.13;33.30;;;;;;;8.35;100.00;99089.09;5089345;28;20504;-30
2022/11/18 04:56:45;;;;;;;252.43;47.50;;;;;;;8.13;100.00;99088.00;5070807;28;20038;-30
2022/11/18 04:59:12;;;;;;;190.07;42.63;;;;;;;8.24;100.00;99089.88;5070852;28;20042;-29
2022/11/18 05:01:39;;;;;;;254.32;46.22;;;;;;;8.30;100.00;99077.53;5070759;28;20032;-30
2022/11/18 05:04:05;;;;;;;68.45;25.90;;;;;;;8.63;100.00;99093.78;5088723;28;20035;-29
2022/11/18 05:06:32;;;;;;;63.17;24.65;;;;;;;8.30;100.00;99088.19;5089348;28;20028;-32
2022/11/18 05:08:59;;;;;;;84.90;27.77;;;;;;;8.40;100.00;99104.38;5089096;28;20039;-30
2022/11/18 05:14:10;;;;;;;61.25;22.50;;;;;;;8.35;100.00;99093.59;5088977;28;20998;-29
2022/11/18 05:16:35;;;;;;;62.67;24.67;;;;;;;8.53;100.00;99098.06;5088240;28;20099;-28
2022/11/18 05:19:02;;;;;;;57.85;23.17;;;;;;;8.33;100.00;99083.19;5088727;28;20028;-32
2022/11/18 05:21:27;;;;;;;66.35;23.65;;;;;;;8.49;100.00;99100.34;5088974;28;20031;-29
2022/11/18 05:23:53;;;;;;;71.95;25.08;;;;;;;8.49;100.00;99087.06;5088760;28;20682;-34
2022/11/18 05:26:18;;;;;;;64.43;23.17;;;;;;;8.44;100.00;99101.03;5070409;28;20038;-30
2022/11/18 05:28:43;;;;;;;66.97;24.17;;;;;;;8.42;100.00;99100.47;5088716;28;20092;-35
2022/11/18 05:31:11;;;;;;;85.45;33.22;;;;;;;8.50;100.00;99077.25;5088729;28;20031;-33
2022/11/18 05:33:37;;;;;;;202.52;65.65;;;;;;;8.41;100.00;99074.91;5070494;28;20391;-31
2022/11/18 05:36:04;;;;;;;78.85;38.90;;;;;;;8.49;100.00;99091.56;5088323;28;20024;-28
2022/11/18 05:38:31;;;;;;;235.90;77.80;;;;;;;8.48;100.00;99074.00;5088682;28;20031;-29
2022/11/18 05:40:57;;;;;;;119.35;38.53;;;;;;;8.52;100.00;99093.75;5070035;28;20032;-29
2022/11/18 05:43:22;;;;;;;174.27;76.25;;;;;;;8.47;100.00;99096.31;5088302;28;20146;-30
2022/11/18 05:45:50;;;;;;;78.55;34.38;;;;;;;8.45;100.00;99092.03;5088331;28;20055;-29
2022/11/18 05:48:18;;;;;;;133.33;40.77;;;;;;;8.60;100.00;99082.78;5088020;28;20036;-28
2022/11/18 05:50:47;;;;;;;85.90;31.27;;;;;;;8.59;100.00;99089.16;5086980;28;20487;-32
2022/11/18 05:53:13;;;;;;;69.20;26.42;;;;;;;8.73;100.00;99097.72;5070062;28;20089;-32
2022/11/18 05:56:03;;;;;;;58.67;24.33;;;;;;;8.36;100.00;99104.00;5088441;28;20032;-31
2022/11/18 05:58:29;;;;;;;57.42;25.13;;;;;;;8.29;100.00;99110.44;5070155;28;20139;-33
2022/11/18 06:00:59;;;;;;;93.68;25.95;;;;;;;8.41;100.00;99109.47;5088447;28;20546;-29
2022/11/18 06:03:28;;;;;;;74.47;27.38;;;;;;;8.27;100.00;99104.56;5069845;28;20032;-30
2022/11/18 06:05:57;;;;;;;72.13;26.13;;;;;;;8.57;100.00;99120.47;5087894;28;20047;-29
2022/11/18 06:08:24;;;;;;;;;;;;;;;8.48;100.00;99132.47;5069797;28;20027;-31
2022/11/18 06:10:51;;;;;;;102.53;27.20;;;;;;;8.45;100.00;99121.25;5088141;28;19912;-33
2022/11/18 06:13:22;;;;;;;78.05;23.67;;;;;;;8.61;100.00;99105.69;5088199;28;20554;-33
2022/11/18 06:15:48;;;;;;;52.88;23.85;;;;;;;8.69;100.00;99117.84;5069393;28;20032;-30
2022/11/18 06:18:25;;;;;;;72.07;26.58;;;;;;;8.66;100.00;99119.09;5087519;28;20035;-29
2022/11/18 06:20:53;;;;;;;49.38;23.58;;;;;;;8.54;100.00;99100.50;5087642;28;20031;-32
2022/11/18 06:23:19;;;;;;;60.20;25.92;;;;;;;8.64;100.00;99110.53;5069444;28;20506;-28
2022/11/18 06:25:44;;;;;;;54.65;21.95;;;;;;;8.44;100.00;99111.69;5087279;28;20028;-32
2022/11/18 06:28:13;;;;;;;49.10;20.90;;;;;;;8.42;100.00;99119.06;5086478;28;20061;-31
2022/11/18 06:30:39;;;;;;;77.30;22.40;;;;;;;8.71;100.00;99132.50;5069069;28;20081;-29
2022/11/18 06:33:04;;;;;;;83.00;23.63;;;;;;;8.79;100.00;99134.03;5068801;28;20028;-30
2022/11/18 06:35:30;;;;;;;69.20;23.60;;;;;;;8.92;100.00;99133.00;5069007;28;21095;-29
2022/11/18 06:37:56;;;;;;;81.68;25.02;;;;;;;8.96;100.00;99140.28;5087018;28;20040;-30
2022/11/18 06:40:21;;;;;;;93.10;27.08;;;;;;;8.80;100.00;99133.78;5087461;28;20380;-29
2022/11/18 06:45:30;;;;;;;49.60;22.30;;;;;;;9.04;100.00;99131.13;5087282;28;20111;-32
2022/11/18 06:47:57;;;;;;;56.83;21.52;;;;;;;9.11;100.00;99131.00;5086500;28;20123;-31
2022/11/18 06:50:22;;;;;;;62.17;21.65;;;;;;;9.27;100.00;99135.63;5087185;28;20392;-32
2022/11/18 06:52:48;;;;;;;60.38;22.20;;;;;;;8.95;100.00;99124.53;5087507;28;20039;-33
2022/11/18 06:55:13;;;;;;;70.65;23.00;;;;;;;8.86;100.00;99124.09;5087013;28;20414;-29
2022/11/18 06:57:38;;;;;;;80.43;23.33;;;;;;;8.98;100.00;99124.09;5087128;28;20028;-37
2022/11/18 07:00:05;;;;;;;62.65;23.15;;;;;;;8.90;100.00;99119.13;5086865;28;20028;-29
2022/11/18 07:02:30;;;;;;;145.55;35.25;;;;;;;9.04;100.00;99131.13;5068214;28;20032;-29
2022/11/18 07:04:56;;;;;;;81.40;26.50;;;;;;;9.09;100.00;99127.78;5086890;28;20088;-29
2022/11/18 07:07:21;;;;;;;49.78;24.52;;;;;;;9.13;100.00;99113.78;5086825;28;20598;-32
2022/11/18 07:09:47;;;;;;;52.28;22.98;;;;;;;9.09;100.00;99122.47;5068235;28;20035;-29
2022/11/18 07:12:12;;;;;;;51.05;23.15;;;;;;;9.10;100.00;99103.63;5086758;28;20032;-32
2022/11/18 07:14:37;;;;;;;42.17;21.55;;;;;;;9.19;100.00;99096.91;5086977;28;20050;-31
2022/11/18 07:17:03;;;;;;;56.90;22.08;;;;;;;8.97;100.00;99093.19;5086409;28;20785;-35
2022/11/18 07:19:29;;;;;;;50.78;22.83;;;;;;;8.89;100.00;99077.59;5086767;28;20027;-29
2022/11/18 07:21:55;;;;;;;42.92;24.02;;;;;;;9.07;100.00;99096.09;5086288;28;20039;-28
2022/11/18 07:24:21;;;;;;;59.42;25.75;;;;;;;9.01;100.00;99097.00;5086468;28;20047;-32
2022/11/18 07:26:46;;;;;;;62.25;25.70;;;;;;;9.31;100.00;99096.06;5086430;28;20059;-30
2022/11/18 07:29:11;;;;;;;49.22;23.98;;;;;;;9.21;100.00;99108.13;5086383;28;20111;-31
2022/11/18 07:31:38;;;;;;;59.15;25.15;;;;;;;8.99;100.00;99093.78;5086307;28;20053;-31
2022/11/18 07:34:04;;;;;;;134.00;64.93;;;;;;;9.08;100.00;99084.41;5086253;28;20034;-29
2022/11/18 07:36:29;;;;;;;102.55;47.35;;;;;;;9.54;100.00;99093.38;5068257;28;20032;-29
2022/11/18 07:38:58;;;;;;;62.58;28.23;;;;;;;9.43;100.00;99072.91;5067969;28;20020;-35
2022/11/18 07:41:26;;;;;;;71.38;29.10;;;;;;;9.54;100.00;99101.34;5067780;28;20032;-31
2022/11/18 07:43:54;;;;;;;64.88;27.15;;;;;;;9.49;100.00;99106.56;5078995;28;20028;-32
2022/11/18 07:46:31;;;;;;;61.28;26.08;;;;;;;9.50;100.00;99110.84;5065884;28;20123;-34
2022/11/18 07:49:00;;;;;;;49.35;24.13;;;;;;;9.35;100.00;99098.03;5065571;28;20071;-31
2022/11/18 07:51:29;;;;;;;55.22;31.40;;;;;;;9.42;100.00;99100.56;5066260;28;20055;-29
2022/11/18 07:53:55;;;;;;;60.25;25.88;;;;;;;9.89;100.00;99105.75;5047800;28;21283;-29
2022/11/18 07:56:21;;;;;;;54.05;26.88;;;;;;;9.65;100.00;99081.06;5066107;28;20027;-29
2022/11/18 07:58:46;;;;;;;46.00;23.65;;;;;;;9.69;100.00;99097.38;5064331;28;20064;-30
2022/11/18 08:01:17;;;;;;;46.30;25.50;;;;;;;9.53;100.00;99113.03;5066202;28;20048;-31
2022/11/18 08:03:44;;;;;;;43.83;22.67;;;;;;;9.39;100.00;99101.84;5064700;28;20028;-29
2022/11/18 08:06:11;;;;;;;43.67;23.90;;;;;;;9.64;100.00;99098.91;5064696;28;20060;-31
2022/11/18 08:08:37;;;;;;;46.05;24.52;;;;;;;9.38;100.00;99088.78;5047877;28;20024;-28
2022/11/18 08:11:06;;;;;;;39.92;20.85;;;;;;;9.45;100.00;99081.47;5064619;28;20024;-33
2022/11/18 08:13:32;;;;;;;47.85;22.90;;;;;;;9.54;100.00;99104.03;5065974;28;20024;-32
2022/11/18 08:15:58;;;;;;;44.55;21.58;;;;;;;9.37;100.00;99097.78;5047817;28;20086;-31
2022/11/18 08:18:24;;;;;;;46.83;23.83;;;;;;;9.57;100.00;99127.50;5066097;28;20033;-29
2022/11/18 08:20:49;;;;;;;41.20;22.90;;;;;;;9.47;100.00;99107.84;5066106;28;20032;-30
2022/11/18 08:23:15;;;;;;;45.65;23.67;;;;;;;9.71;100.00;99122.72;5066026;28;20031;-33
2022/11/18 08:25:43;;;;;;;54.78;24.80;;;;;;;9.73;100.00;99117.97;5047291;28;20419;-36
2022/11/18 08:28:09;;;;;;;46.93;24.70;;;;;;;9.81;100.00;99106.13;5066079;28;20037;-29
2022/11/18 08:30:35;;;;;;;51.88;24.95;;;;;;;9.81;100.00;99116.78;5065944;28;20465;-34
2022/11/18 08:33:01;;;;;;;44.55;22.50;;;;;;;9.99;100.00;99121.09;5065895;28;20112;-29
2022/11/18 08:35:31;;;;;;;51.28;24.90;;;;;;;10.08;100.00;99110.88;5064690;28;20035;-29
2022/11/18 08:37:57;;;;;;;50.58;24.55;;;;;;;10.25;100.00;99109.03;5065529;28;20035;-29
2022/11/18 08:40:23;;;;;;;44.60;25.55;;;;;;;10.34;100.00;99107.66;5047636;28;20070;-28
2022/11/18 08:42:48;;;;;;;55.53;25.58;;;;;;;10.10;100.00;99090.16;5064299;28;20109;-28
2022/11/18 08:45:14;;;;;;;48.47;25.27;;;;;;;10.34;100.00;99112.97;5066143;28;20085;-31
2022/11/18 08:47:39;;;;;;;49.53;24.90;;;;;;;10.45;100.00;99105.97;5065790;28;20032;-30
2022/11/18 08:50:07;;;;;;;45.03;24.70;;;;;;;10.50;100.00;99074.06;5065438;28;20048;-37
2022/11/18 08:52:33;;;;;;;51.92;24.85;;;;;;;10.39;100.00;99073.06;5066259;28;20508;-29
2022/11/18 08:54:59;;;;;;;61.05;25.58;;;;;;;10.59;100.00;99082.47;5069119;28;20107;-30
2022/11/18 08:57:24;;;;;;;58.85;25.98;;;;;;;10.85;100.00;99094.31;5051418;28;20110;-29
2022/11/18 08:59:50;;;;;;;71.28;33.30;;;;;;;10.92;100.00;99076.28;5068824;28;20043;-29
2022/11/18 09:02:17;;;;;;;59.58;27.90;;;;;;;11.01;100.00;99090.00;5069343;28;20699;-34
2022/11/18 09:04:43;;;;;;;60.10;27.35;;;;;;;10.90;100.00;99086.38;5067534;28;20545;-28
2022/11/18 09:07:08;;;;;;;60.78;27.58;;;;;;;11.01;100.00;99100.66;5051253;28;20024;-29
2022/11/18 09:09:34;;;;;;;63.50;28.00;;;;;;;11.07;100.00;99083.69;5068445;28;20207;-29
2022/11/18 09:11:59;;;;;;;60.70;26.70;;;;;;;10.90;100.00;99085.59;5068978;28;20036;-30
2022/11/18 09:14:25;;;;;;;62.22;28.23;;;;;;;10.86;100.00;99083.38;5069065;28;20033;-34
2022/11/18 09:16:50;;;;;;;60.88;28.05;;;;;;;11.10;100.00;99082.41;5068655;28;20036;-31
2022/11/18 09:19:16;;;;;;;70.93;32.97;;;;;;;11.24;100.00;99073.78;5050791;28;20510;-33
2022/11/18 09:21:42;;;;;;;69.68;30.10;;;;;;;11.25;100.00;99086.06;5068332;28;20111;-28
2022/11/18 09:24:09;;;;;;;82.63;32.30;;;;;;;10.95;100.00;99083.81;5050441;28;20395;-31
2022/11/18 09:26:35;;;;;;;71.70;31.45;;;;;;;10.88;100.00;99085.03;5050521;28;20428;-31
2022/11/18 09:29:01;;;;;;;71.13;30.27;;;;;;;11.01;100.00;99090.00;5050712;28;20040;-29
2022/11/18 09:31:26;;;;;;;69.53;30.98;;;;;;;11.16;100.00;99092.88;5050469;28;20472;-31
2022/11/18 09:33:51;;;;;;;72.30;32.03;;;;;;;11.27;100.00;99083.94;5068490;28;20396;-29
2022/11/18 09:36:20;;;;;;;68.75;31.45;;;;;;;11.42;100.00;99079.84;5068624;28;20036;-30
2022/11/18 09:38:46;;;;;;;69.93;31.27;;;;;;;11.37;100.00;99077.13;5068159;28;20036;-30
2022/11/18 09:41:41;;;;;;;65.28;30.67;;;;;;;11.29;100.00;99075.69;5068742;28;20025;-32
2022/11/18 09:44:29;;;;;;;64.38;32.15;;;;;;;11.21;100.00;99068.94;5064972;28;20551;-35
2022/11/18 09:47:10;;;;;;;56.95;29.10;;;;;;;11.14;100.00;99062.19;5068128;28;20059;-31
2022/11/18 09:49:39;;;;;;;71.55;35.63;;;;;;;11.14;100.00;99068.31;5067863;28;20118;-31
2022/11/18 09:52:13;;;;;;;60.30;28.27;;;;;;;11.19;100.00;99048.88;5067964;28;20499;-28
2022/11/18 09:54:39;;;;;;;72.30;34.47;;;;;;;11.34;100.00;99040.25;5068298;28;20028;-33
2022/11/18 09:57:16;;;;;;;65.93;34.97;;;;;;;11.22;100.00;99030.53;5068001;28;20039;-28
2022/11/18 09:59:43;;;;;;;71.95;32.30;;;;;;;11.02;100.00;99028.41;5068115;28;20569;-33
2022/11/18 10:02:41;;;;;;;72.13;30.52;;;;;;;10.94;100.00;99020.03;5073899;28;20028;-30
2022/11/18 10:05:21;;;;;;;69.22;28.27;;;;;;;11.02;100.00;99001.72;5067989;28;20047;-32
2022/11/18 10:08:20;;;;;;;64.13;28.58;;;;;;;11.31;100.00;99009.53;5054667;28;20037;-31
2022/11/18 10:11:01;;;;;;;56.92;26.42;;;;;;;11.31;100.00;99006.06;5085992;28;20032;-33
2022/11/18 10:13:35;;;;;;;54.03;26.38;;;;;;;11.22;100.00;99006.50;5086771;28;20024;-28
2022/11/18 10:16:20;;;;;;;56.08;25.33;;;;;;;11.22;100.00;99006.50;5077178;28;20039;-31
2022/11/18 10:19:25;;;;;;;58.47;25.60;;;;;;;11.14;100.00;99008.81;5049743;28;20107;-34
2022/11/18 10:21:56;;;;;;;65.72;25.92;;;;;;;11.24;100.00;98999.06;5048842;28;20040;-30
2022/11/18 10:24:24;;;;;;;75.40;39.45;;;;;;;11.26;100.00;98996.94;5067736;28;20024;-30
2022/11/18 10:26:57;;;;;;;;;;;;;;;11.43;100.00;99001.41;5049930;28;20035;-35
2022/11/18 10:29:23;;;;;;;42.33;20.25;;;;;;;11.18;100.00;98969.91;5049405;28;20442;-31
2022/11/18 10:32:05;;;;;;;52.10;21.13;;;;;;;11.37;100.00;98981.84;5066989;28;20048;-32
2022/11/18 10:34:44;;;;;;;45.05;20.85;;;;;;;11.44;100.00;98965.63;5067341;28;20120;-29
2022/11/18 10:37:27;;;;;;;52.97;22.52;;;;;;;11.03;100.00;98957.16;5067235;28;20111;-30
2022/11/18 10:39:55;;;;;;;51.75;23.20;;;;;;;11.38;100.00;98966.63;5049012;28;20044;-31
2022/11/18 10:42:42;;;;;;;50.63;22.00;;;;;;;11.32;100.00;98975.63;5067303;28;20036;-30
2022/11/18 10:45:26;;;;;;;54.60;22.15;;;;;;;11.26;100.00;98967.59;5049078;28;20139;-29
2022/11/18 10:48:07;;;;;;;50.50;21.85;;;;;;;11.29;100.00;98949.47;5048525;28;20118;-29
2022/11/18 10:50:41;;;;;;;80.28;36.85;;;;;;;11.49;100.00;98943.53;5066888;28;20032;-32
2022/11/18 10:53:30;;;;;;;51.47;21.95;;;;;;;11.33;100.00;98937.22;5066944;28;20416;-29
2022/11/18 10:56:00;;;;;;;82.13;55.88;;;;;;;11.30;100.00;98917.19;5066991;28;20021;-29
2022/11/18 10:58:29;;;;;;;55.08;24.05;;;;;;;11.15;100.00;98891.13;5049061;28;20024;-30
2022/11/18 11:01:18;;;;;;;89.30;40.80;;;;;;;11.26;100.00;98908.88;5048919;28;20032;-29
2022/11/18 11:04:11;;;;;;;53.38;21.95;;;;;;;11.14;100.00;98918.88;5048640;28;20043;-29
2022/11/18 11:06:37;;;;;;;51.55;24.15;;;;;;;11.03;100.00;98911.81;5063133;28;20127;-30
2022/11/18 11:09:07;;;;;;;57.70;23.65;;;;;;;11.03;100.00;98911.81;5048365;28;20108;-29
2022/11/18 11:11:38;;;;;;;57.70;23.77;;;;;;;11.06;100.00;98911.31;5066696;28;20036;-30
2022/11/18 11:14:04;;;;;;;58.85;23.80;;;;;;;11.08;100.00;98908.41;5065753;28;20033;-31
2022/11/18 11:16:32;;;;;;;59.47;24.70;;;;;;;11.15;100.00;98899.13;5064594;28;20035;-30
2022/11/18 11:19:01;;;;;;;84.10;33.65;;;;;;;11.35;100.00;98893.19;5066829;28;20774;-31
2022/11/18 11:21:28;;;;;;;60.40;25.60;;;;;;;11.26;100.00;98889.41;5066261;28;20700;-32
2022/11/18 11:23:54;;;;;;;53.78;24.95;;;;;;;11.25;100.00;98882.44;5031447;28;20170;-33
2022/11/18 11:26:31;;;;;;;60.45;25.77;;;;;;;11.43;100.00;98902.63;5048161;28;20470;-29
2022/11/18 11:29:15;;;;;;;59.45;24.42;;;;;;;11.41;100.00;98904.75;5066145;28;20032;-30
2022/11/18 11:32:00;;;;;;;60.63;26.90;;;;;;;11.26;100.00;98908.06;5066284;28;20111;-38
2022/11/18 11:34:43;;;;;;;66.28;25.88;;;;;;;11.23;100.00;98901.34;5066023;28;20029;-30
2022/11/18 11:37:14;;;;;;;68.07;28.42;;;;;;;11.22;100.00;98889.09;5048170;28;20032;-29